createdAt,value
2022-08-21T00:01:40.714Z,7.30
2022-08-21T00:04:08.236Z,8.02
2022-08-21T00:06:36.402Z,9.25
2022-08-21T00:09:06.884Z,8.23
2022-08-21T00:11:35.905Z,7.53
2022-08-21T00:14:03.359Z,10.35
2022-08-21T00:16:30.096Z,7.13
2022-08-21T00:18:56.752Z,8.18
2022-08-21T00:21:23.382Z,6.80
2022-08-21T00:23:50.090Z,8.80
2022-08-21T00:26:16.732Z,6.43
2022-08-21T00:28:43.927Z,6.63
2022-08-21T00:31:10.634Z,8.43
2022-08-21T00:33:37.286Z,8.02
2022-08-21T00:36:04.150Z,7.47
2022-08-21T00:38:31.001Z,7.88
2022-08-21T00:41:10.223Z,8.13
2022-08-21T00:43:48.319Z,7.40
2022-08-21T00:46:14.934Z,8.10
2022-08-21T00:48:41.719Z,8.20
2022-08-21T00:51:23.363Z,7.28
2022-08-21T00:53:55.086Z,8.30
2022-08-21T00:56:22.363Z,9.00
2022-08-21T00:58:50.043Z,7.03
2022-08-21T01:01:21.700Z,8.13
2022-08-21T01:03:48.772Z,7.97
2022-08-21T01:06:16.830Z,8.73
2022-08-21T01:08:46.758Z,8.20
2022-08-21T01:11:15.718Z,7.07
2022-08-21T01:13:46.779Z,8.80
2022-08-21T01:16:17.086Z,8.32
2022-08-21T01:18:45.819Z,7.80
2022-08-21T01:21:20.103Z,8.65
2022-08-21T01:23:50.324Z,6.47
2022-08-21T01:26:19.395Z,8.13
2022-08-21T01:29:13.903Z,5.82
2022-08-21T01:31:41.042Z,5.97
2022-08-21T01:34:07.982Z,6.70
2022-08-21T01:36:35.027Z,7.57
2022-08-21T01:39:03.745Z,6.00
2022-08-21T01:41:30.382Z,6.78
2022-08-21T01:43:57.179Z,6.43
2022-08-21T01:46:23.824Z,7.22
2022-08-21T01:48:50.473Z,6.88
2022-08-21T01:51:17.277Z,7.18
2022-08-21T01:53:43.987Z,8.32
2022-08-21T01:56:15.347Z,8.32
2022-08-21T01:58:44.368Z,7.00
2022-08-21T02:01:11.385Z,5.50
2022-08-21T02:03:38.987Z,7.47
2022-08-21T02:06:07.968Z,6.32
2022-08-21T02:08:35.361Z,7.10
2022-08-21T02:11:02.218Z,8.05
2022-08-21T02:13:29.096Z,6.97
2022-08-21T02:15:55.849Z,7.57
2022-08-21T02:18:22.647Z,6.03
2022-08-21T02:20:55.283Z,7.60
2022-08-21T02:23:26.631Z,8.45
2022-08-21T02:25:56.177Z,7.03
2022-08-21T02:28:22.959Z,6.90
2022-08-21T02:30:50.173Z,6.75
2022-08-21T02:33:17.552Z,5.72
2022-08-21T02:35:46.180Z,7.95
2022-08-21T02:38:20.386Z,6.28
2022-08-21T02:40:51.110Z,7.82
2022-08-21T02:43:20.255Z,5.75
2022-08-21T02:45:48.086Z,8.40
2022-08-21T02:48:19.076Z,5.80
2022-08-21T02:50:48.978Z,9.02
2022-08-21T02:53:17.535Z,7.78
2022-08-21T02:55:49.619Z,6.10
2022-08-21T02:58:24.213Z,8.93
2022-08-21T03:00:52.082Z,7.32
2022-08-21T03:03:18.778Z,8.05
2022-08-21T03:05:45.508Z,6.55
2022-08-21T03:08:14.561Z,7.07
2022-08-21T03:10:44.211Z,7.43
2022-08-21T03:13:11.488Z,9.18
2022-08-21T03:15:38.504Z,8.63
2022-08-21T03:18:06.203Z,5.97
2022-08-21T03:20:34.482Z,8.60
2022-08-21T03:23:02.764Z,7.68
2022-08-21T03:25:39.802Z,7.57
2022-08-21T03:28:13.368Z,8.35
2022-08-21T03:30:42.467Z,7.60
2022-08-21T03:33:09.418Z,9.23
2022-08-21T03:35:39.912Z,9.40
2022-08-21T03:38:06.722Z,9.38
2022-08-21T03:40:33.431Z,8.55
2022-08-21T03:43:00.133Z,7.30
2022-08-21T03:45:26.988Z,7.80
2022-08-21T03:48:01.082Z,7.13
2022-08-21T03:50:35.505Z,6.65
2022-08-21T03:53:08.609Z,7.40
2022-08-21T03:55:44.289Z,7.85
2022-08-21T03:58:16.775Z,8.23
2022-08-21T04:00:46.063Z,6.82
2022-08-21T04:03:12.751Z,6.78
2022-08-21T04:05:40.053Z,6.65
2022-08-21T04:08:07.555Z,8.43
2022-08-21T04:10:36.324Z,6.05
2022-08-21T04:13:03.902Z,7.07
2022-08-21T04:15:30.680Z,7.07
2022-08-21T04:17:57.357Z,8.63
2022-08-21T04:20:24.492Z,6.18
2022-08-21T04:22:51.987Z,6.03
2022-08-21T04:25:20.854Z,6.35
2022-08-21T04:27:47.577Z,8.27
2022-08-21T04:30:15.711Z,6.00
2022-08-21T04:32:47.681Z,6.70
2022-08-21T04:35:18.954Z,7.45
2022-08-21T04:37:45.771Z,7.57
2022-08-21T04:40:14.949Z,7.57
2022-08-21T04:42:50.543Z,5.75
2022-08-21T04:45:24.369Z,6.55
2022-08-21T04:47:53.595Z,5.93
2022-08-21T04:50:23.714Z,8.40
2022-08-21T04:52:50.402Z,6.15
2022-08-21T04:55:18.939Z,6.15
2022-08-21T04:57:48.615Z,7.05
2022-08-21T05:00:19.413Z,6.50
2022-08-21T05:02:48.480Z,7.28
2022-08-21T05:05:16.131Z,7.22
2022-08-21T05:07:44.735Z,8.07
2022-08-21T05:10:12.518Z,6.45
2022-08-21T05:12:42.646Z,6.78
2022-08-21T05:15:12.191Z,7.25
2022-08-21T05:17:41.318Z,6.53
2022-08-21T05:20:09.845Z,6.75
2022-08-21T05:22:36.874Z,7.97
2022-08-21T05:25:10.192Z,7.45
2022-08-21T05:27:39.538Z,8.23
2022-08-21T05:30:10.241Z,7.38
2022-08-21T05:32:37.122Z,8.10
2022-08-21T05:35:06.274Z,7.85
2022-08-21T05:37:33.284Z,8.27
2022-08-21T05:40:04.987Z,9.85
2022-08-21T05:42:56.385Z,9.07
2022-08-21T05:45:41.835Z,10.05
2022-08-21T05:48:14.212Z,9.55
2022-08-21T05:50:41.939Z,10.93
2022-08-21T05:53:10.344Z,10.73
2022-08-21T05:55:42.735Z,11.27
2022-08-21T05:58:12.550Z,8.88
2022-08-21T06:00:39.387Z,10.05
2022-08-21T06:03:12.164Z,9.07
2022-08-21T06:05:38.799Z,10.07
2022-08-21T06:08:05.711Z,11.48
2022-08-21T06:10:32.613Z,9.30
2022-08-21T06:12:59.449Z,9.85
2022-08-21T06:15:26.425Z,10.40
2022-08-21T06:17:54.586Z,10.93
2022-08-21T06:20:21.559Z,10.95
2022-08-21T06:22:48.302Z,10.60
2022-08-21T06:25:14.955Z,8.70
2022-08-21T06:27:41.778Z,10.27
2022-08-21T06:30:09.179Z,10.55
2022-08-21T06:32:36.220Z,10.07
2022-08-21T06:35:04.167Z,11.43
2022-08-21T06:37:30.971Z,11.50
2022-08-21T06:39:57.683Z,10.80
2022-08-21T06:42:27.954Z,10.27
2022-08-21T06:44:55.182Z,9.57
2022-08-21T06:47:21.855Z,10.60
2022-08-21T06:49:48.472Z,12.85
2022-08-21T06:52:16.518Z,10.60
2022-08-21T06:54:43.334Z,12.27
2022-08-21T06:57:10.342Z,11.00
2022-08-21T06:59:37.040Z,13.40
2022-08-21T07:02:03.946Z,12.32
2022-08-21T07:04:30.925Z,11.30
2022-08-21T07:06:57.602Z,12.27
2022-08-21T07:09:24.956Z,13.10
2022-08-21T07:11:54.707Z,11.80
2022-08-21T07:14:22.209Z,15.05
2022-08-21T07:16:50.225Z,12.13
2022-08-21T07:19:16.937Z,15.85
2022-08-21T07:21:43.857Z,11.52
2022-08-21T07:24:11.235Z,11.05
2022-08-21T07:26:38.082Z,11.23
2022-08-21T07:29:05.204Z,11.02
2022-08-21T07:31:32.545Z,12.25
2022-08-21T07:33:59.185Z,8.35
2022-08-21T07:36:25.944Z,12.32
2022-08-21T07:38:53.164Z,10.65
2022-08-21T07:41:26.556Z,13.52
2022-08-21T07:43:53.427Z,9.00
2022-08-21T07:46:20.533Z,9.05
2022-08-21T07:48:47.268Z,7.57
2022-08-21T07:51:15.908Z,9.15
2022-08-21T07:53:42.645Z,9.77
2022-08-21T07:56:09.669Z,10.63
2022-08-21T07:58:36.383Z,8.65
2022-08-21T08:01:03.214Z,7.53
2022-08-21T08:03:29.898Z,11.90
2022-08-21T08:05:57.734Z,8.98
2022-08-21T08:08:24.657Z,10.38
2022-08-21T08:10:51.597Z,9.30
2022-08-21T08:13:18.476Z,9.57
2022-08-21T08:15:45.083Z,7.50
2022-08-21T08:18:11.955Z,9.18
2022-08-21T08:20:38.627Z,8.00
2022-08-21T08:23:05.289Z,10.52
2022-08-21T08:25:36.639Z,9.02
2022-08-21T08:28:16.687Z,11.52
2022-08-21T08:30:45.741Z,5.82
2022-08-21T08:33:12.490Z,10.38
2022-08-21T08:35:41.035Z,9.32
2022-08-21T08:38:07.673Z,7.20
2022-08-21T08:40:43.169Z,8.40
2022-08-21T08:43:10.908Z,8.88
2022-08-21T08:45:49.062Z,8.18
2022-08-21T08:48:38.875Z,6.13
2022-08-21T08:51:10.518Z,8.55
2022-08-21T08:53:58.390Z,10.10
2022-08-21T08:56:30.758Z,8.75
2022-08-21T08:59:08.772Z,9.90
2022-08-21T09:01:38.937Z,8.45
2022-08-21T09:04:06.840Z,7.93
2022-08-21T09:06:52.988Z,8.38
2022-08-21T09:10:11.212Z,8.55
2022-08-21T09:12:59.460Z,8.38
2022-08-21T09:15:47.780Z,9.23
2022-08-21T09:18:54.764Z,7.50
2022-08-21T09:22:02.214Z,7.38
2022-08-21T09:25:18.173Z,6.63
2022-08-21T09:27:44.951Z,6.90
2022-08-21T09:30:12.684Z,7.60
2022-08-21T09:32:40.236Z,7.05
2022-08-21T09:35:09.983Z,6.85
2022-08-21T09:38:01.886Z,8.00
2022-08-21T09:40:36.612Z,8.68
2022-08-21T09:43:05.290Z,8.13
2022-08-21T09:45:34.514Z,6.95
2022-08-21T09:48:26.471Z,7.57
2022-08-21T09:51:09.714Z,7.47
2022-08-21T09:53:43.934Z,8.98
2022-08-21T09:56:45.379Z,7.25
2022-08-21T09:59:36.348Z,7.68
2022-08-21T10:02:18.643Z,7.90
2022-08-21T10:04:52.164Z,7.20
2022-08-21T10:07:22.658Z,8.73
2022-08-21T10:10:01.113Z,9.57
2022-08-21T10:12:55.766Z,8.15
2022-08-21T10:15:48.307Z,11.50
2022-08-21T10:18:33.977Z,7.28
2022-08-21T10:21:29.411Z,5.60
2022-08-21T10:24:06.047Z,8.38
2022-08-21T10:27:08.076Z,7.43
2022-08-21T10:30:07.166Z,7.38
2022-08-21T10:33:09.156Z,7.78
2022-08-21T10:35:52.402Z,6.20
2022-08-21T10:38:58.741Z,5.78
2022-08-21T10:41:42.344Z,7.85
2022-08-21T10:44:15.351Z,4.28
2022-08-21T10:47:09.630Z,7.05
2022-08-21T10:50:18.727Z,5.07
2022-08-21T10:53:16.327Z,8.93
2022-08-21T10:55:57.485Z,5.80
2022-08-21T10:58:31.351Z,5.95
2022-08-21T11:01:07.401Z,4.93
2022-08-21T11:03:40.751Z,6.68
2022-08-21T11:06:17.509Z,6.25
2022-08-21T11:09:15.529Z,5.35
2022-08-21T11:12:12.410Z,5.28
2022-08-21T11:15:02.005Z,6.30
2022-08-21T11:17:38.018Z,6.15
2022-08-21T11:20:13.460Z,7.45
2022-08-21T11:22:55.577Z,6.22
2022-08-21T11:25:37.124Z,8.82
2022-08-21T11:28:14.628Z,6.65
2022-08-21T11:30:50.633Z,4.75
2022-08-21T11:33:42.664Z,4.75
2022-08-21T11:36:33.043Z,4.70
2022-08-21T11:39:25.515Z,5.68
2022-08-21T11:42:27.830Z,6.63
2022-08-21T11:45:28.838Z,4.80
2022-08-21T11:48:16.947Z,6.65
2022-08-21T11:50:45.979Z,6.28
2022-08-21T11:53:22.898Z,4.40
2022-08-21T11:56:01.303Z,5.22
2022-08-21T11:58:32.172Z,5.50
2022-08-21T12:01:07.606Z,5.53
2022-08-21T12:03:42.818Z,6.60
2022-08-21T12:06:12.646Z,5.72
2022-08-21T12:08:42.743Z,4.53
2022-08-21T12:11:18.378Z,6.93
2022-08-21T12:13:59.681Z,4.90
2022-08-21T12:16:41.279Z,6.90
2022-08-21T12:19:12.394Z,4.72
2022-08-21T12:22:10.213Z,3.72
2022-08-21T12:24:41.375Z,5.13
2022-08-21T12:27:31.190Z,4.05
2022-08-21T12:30:10.570Z,7.63
2022-08-21T12:32:43.642Z,4.35
2022-08-21T12:35:24.571Z,5.15
2022-08-21T12:38:28.992Z,6.78
2022-08-21T12:41:12.073Z,3.33
2022-08-21T12:43:58.377Z,6.35
2022-08-21T12:46:38.207Z,6.32
2022-08-21T12:49:14.650Z,5.78
2022-08-21T12:51:57.051Z,6.03
2022-08-21T12:54:30.363Z,4.75
2022-08-21T12:57:02.981Z,6.43
2022-08-21T12:59:30.743Z,5.88
2022-08-21T13:02:01.661Z,4.65
2022-08-21T13:04:42.134Z,5.15
2022-08-21T13:07:15.144Z,4.47
2022-08-21T13:09:48.598Z,6.00
2022-08-21T13:12:17.279Z,5.07
2022-08-21T13:14:47.601Z,3.45
2022-08-21T13:17:25.922Z,4.75
2022-08-21T13:20:11.277Z,8.07
2022-08-21T13:22:44.812Z,6.15
2022-08-21T13:25:18.051Z,4.05
2022-08-21T13:27:57.399Z,3.78
2022-08-21T13:30:24.517Z,4.22
2022-08-21T13:32:53.418Z,7.53
2022-08-21T13:35:23.186Z,4.32
2022-08-21T13:37:52.793Z,5.43
2022-08-21T13:40:41.185Z,5.47
2022-08-21T13:43:14.327Z,5.07
2022-08-21T13:45:53.146Z,3.92
2022-08-21T13:48:22.393Z,4.25
2022-08-21T13:50:49.271Z,5.05
2022-08-21T13:53:34.469Z,4.65
2022-08-21T13:56:03.339Z,5.07
2022-08-21T13:58:42.521Z,4.57
2022-08-21T14:01:20.626Z,4.20
2022-08-21T14:03:49.906Z,6.18
2022-08-21T14:06:21.512Z,3.58
2022-08-21T14:11:21.566Z,4.50
2022-08-21T14:14:02.252Z,3.90
2022-08-21T14:16:46.249Z,3.40
2022-08-21T14:19:25.794Z,3.58
2022-08-21T14:21:52.675Z,4.15
2022-08-21T14:24:30.638Z,5.35
2022-08-21T14:27:04.770Z,4.53
2022-08-21T14:29:37.615Z,3.38
2022-08-21T14:32:21.771Z,4.20
2022-08-21T14:34:51.637Z,4.63
2022-08-21T14:37:18.838Z,4.45
2022-08-21T14:39:46.474Z,4.95
2022-08-21T14:42:13.835Z,4.05
2022-08-21T14:44:40.508Z,3.10
2022-08-21T14:47:07.583Z,3.85
2022-08-21T14:49:34.310Z,4.93
2022-08-21T14:52:01.002Z,3.58
2022-08-21T14:54:30.960Z,4.03
2022-08-21T14:57:09.580Z,3.50
2022-08-21T14:59:40.137Z,4.55
2022-08-21T15:02:10.040Z,4.45
2022-08-21T15:04:36.883Z,3.08
2022-08-21T15:07:03.867Z,4.25
2022-08-21T15:09:30.563Z,3.72
2022-08-21T15:11:59.524Z,2.70
2022-08-21T15:14:29.575Z,2.50
2022-08-21T15:16:56.931Z,5.28
2022-08-21T15:19:23.639Z,3.55
2022-08-21T15:21:50.481Z,5.22
2022-08-21T15:24:17.472Z,2.78
2022-08-21T15:26:45.088Z,6.55
2022-08-21T15:29:11.927Z,4.47
2022-08-21T15:31:55.252Z,3.65
2022-08-21T15:34:23.336Z,4.28
2022-08-21T15:36:56.233Z,3.15
2022-08-21T15:39:25.094Z,4.15
2022-08-21T15:41:57.587Z,3.50
2022-08-21T15:44:26.200Z,4.38
2022-08-21T15:46:52.842Z,4.30
2022-08-21T15:49:19.621Z,4.03
2022-08-21T15:51:46.395Z,4.38
2022-08-21T15:54:13.079Z,4.32
2022-08-21T15:56:41.892Z,4.93
2022-08-21T15:59:14.245Z,4.43
2022-08-21T16:01:44.606Z,5.03
2022-08-21T16:04:19.393Z,4.28
2022-08-21T16:06:54.406Z,5.63
2022-08-21T16:09:24.083Z,5.72
2022-08-21T16:11:51.634Z,7.35
2022-08-21T16:14:18.468Z,4.38
2022-08-21T16:16:45.518Z,5.88
2022-08-21T16:19:13.559Z,4.80
2022-08-21T16:21:40.245Z,4.53
2022-08-21T16:24:07.143Z,5.57
2022-08-21T16:26:34.195Z,3.33
2022-08-21T16:29:02.976Z,5.80
2022-08-21T16:31:31.693Z,5.47
2022-08-21T16:33:58.720Z,4.55
2022-08-21T16:36:26.592Z,4.28
2022-08-21T16:38:55.451Z,5.18
2022-08-21T16:41:23.951Z,6.30
2022-08-21T16:43:52.335Z,5.18
2022-08-21T16:46:20.508Z,5.72
2022-08-21T16:48:47.386Z,5.00
2022-08-21T16:51:16.018Z,3.72
2022-08-21T16:53:43.683Z,3.75
2022-08-21T16:56:13.297Z,3.92
2022-08-21T16:58:42.510Z,5.13
2022-08-21T17:01:12.101Z,4.65
2022-08-21T17:03:43.574Z,4.50
2022-08-21T17:06:10.631Z,4.60
2022-08-21T17:08:38.143Z,4.43
2022-08-21T17:11:29.304Z,4.63
2022-08-21T17:14:07.703Z,3.70
2022-08-21T17:16:34.750Z,3.78
2022-08-21T17:19:01.383Z,3.63
2022-08-21T17:21:28.151Z,5.40
2022-08-21T17:23:54.828Z,4.32
2022-08-21T17:26:21.487Z,3.28
2022-08-21T17:28:50.070Z,3.90
2022-08-21T17:31:19.861Z,3.70
2022-08-21T17:33:52.840Z,4.45
2022-08-21T17:36:21.135Z,4.05
2022-08-21T17:38:48.348Z,5.30
2022-08-21T17:41:16.095Z,3.05
2022-08-21T17:43:44.067Z,2.97
2022-08-21T17:46:14.948Z,3.95
2022-08-21T17:48:41.595Z,4.43
2022-08-21T17:51:14.595Z,4.30
2022-08-21T17:53:41.780Z,4.57
2022-08-21T17:56:09.394Z,4.50
2022-08-21T17:58:37.036Z,2.92
2022-08-21T18:01:05.688Z,5.35
2022-08-21T18:03:37.097Z,4.70
2022-08-21T18:06:05.558Z,4.55
2022-08-21T18:08:32.681Z,4.15
2022-08-21T18:11:00.161Z,3.42
2022-08-21T18:13:31.064Z,4.22
2022-08-21T18:16:00.163Z,3.83
2022-08-21T18:18:32.691Z,4.22
2022-08-21T18:20:59.343Z,4.40
2022-08-21T18:23:43.252Z,3.25
2022-08-21T18:26:11.047Z,5.75
2022-08-21T18:28:38.486Z,4.63
2022-08-21T18:31:07.414Z,5.32
2022-08-21T18:33:34.295Z,2.78
2022-08-21T18:36:00.990Z,3.28
2022-08-21T18:38:31.350Z,3.22
2022-08-21T18:40:59.672Z,5.28
2022-08-21T18:43:27.025Z,6.35
2022-08-21T18:45:54.084Z,3.28
2022-08-21T18:48:20.975Z,5.78
2022-08-21T18:50:53.579Z,3.15
2022-08-21T18:53:24.054Z,3.95
2022-08-21T18:55:55.039Z,4.30
2022-08-21T18:58:25.455Z,4.60
2022-08-21T19:00:54.194Z,3.70
2022-08-21T19:06:11.949Z,5.50
2022-08-21T19:08:38.851Z,3.53
2022-08-21T19:11:06.447Z,5.70
2022-08-21T19:13:33.875Z,5.90
2022-08-21T19:16:03.842Z,3.38
2022-08-21T19:18:35.378Z,4.38
2022-08-21T19:21:16.182Z,4.20
2022-08-21T19:23:53.227Z,3.40
2022-08-21T19:27:15.256Z,2.95
2022-08-21T19:29:55.958Z,5.30
2022-08-21T19:32:23.036Z,4.38
2022-08-21T19:34:49.935Z,2.85
2022-08-21T19:37:20.340Z,4.82
2022-08-21T19:39:50.318Z,3.45
2022-08-21T19:42:21.216Z,2.45
2022-08-21T19:44:50.927Z,4.97
2022-08-21T19:47:21.160Z,3.13
2022-08-21T19:49:54.009Z,5.15
2022-08-21T19:52:22.713Z,3.20
2022-08-21T19:54:51.787Z,3.35
2022-08-21T19:57:18.667Z,3.88
2022-08-21T19:59:46.372Z,4.22
2022-08-21T20:02:17.424Z,2.22
2022-08-21T20:04:53.320Z,4.60
2022-08-21T20:07:26.427Z,3.53
2022-08-21T20:09:54.515Z,4.00
2022-08-21T20:12:23.162Z,3.40
2022-08-21T20:14:50.675Z,4.25
2022-08-21T20:17:19.289Z,3.90
2022-08-21T20:19:55.383Z,4.05
2022-08-21T20:22:24.145Z,5.53
2022-08-21T20:24:51.500Z,1.90
2022-08-21T20:27:25.374Z,5.68
2022-08-21T20:29:52.680Z,4.05
2022-08-21T20:32:19.356Z,7.20
2022-08-21T20:34:51.766Z,3.80
2022-08-21T20:37:36.001Z,5.25
2022-08-21T20:40:10.360Z,4.57
2022-08-21T20:42:40.536Z,5.03
2022-08-21T20:45:08.626Z,3.95
2022-08-21T20:47:37.652Z,4.32
2022-08-21T20:53:02.091Z,2.33
2022-08-21T20:55:31.935Z,4.53
2022-08-21T20:58:07.452Z,5.38
2022-08-21T21:00:40.070Z,3.75
2022-08-21T21:03:16.879Z,4.88
2022-08-21T21:05:46.614Z,3.95
2022-08-21T21:08:25.762Z,3.70
2022-08-21T21:11:00.808Z,3.75
2022-08-21T21:13:43.943Z,3.67
2022-08-21T21:16:40.662Z,2.95
2022-08-21T21:19:20.895Z,5.85
2022-08-21T21:21:54.285Z,4.45
2022-08-21T21:24:27.679Z,3.80
2022-08-21T21:27:22.805Z,4.22
2022-08-21T21:30:12.276Z,4.03
2022-08-21T21:32:41.174Z,3.83
2022-08-21T21:35:12.272Z,3.92
2022-08-21T21:37:59.779Z,2.90
2022-08-21T21:40:54.361Z,2.97
2022-08-21T21:43:38.958Z,3.85
2022-08-21T21:48:54.993Z,3.65
2022-08-21T21:51:40.249Z,3.22
2022-08-21T21:54:34.560Z,3.38
2022-08-21T21:57:38.481Z,4.88
2022-08-21T22:00:15.609Z,4.45
2022-08-21T22:03:14.959Z,3.47
2022-08-21T22:05:49.305Z,3.53
2022-08-21T22:08:32.357Z,3.97
2022-08-21T22:11:34.448Z,4.13
2022-08-21T22:14:22.638Z,3.85
2022-08-21T22:16:50.700Z,5.22
2022-08-21T22:19:34.707Z,4.78
2022-08-21T22:22:11.758Z,5.47
2022-08-21T22:24:42.668Z,4.20
2022-08-21T22:27:17.045Z,4.43
2022-08-21T22:29:50.765Z,5.25
2022-08-21T22:32:25.707Z,2.50
2022-08-21T22:35:13.508Z,3.78
2022-08-21T22:37:44.689Z,4.00
2022-08-21T22:40:15.833Z,3.88
2022-08-21T22:42:42.846Z,3.95
2022-08-21T22:45:12.268Z,4.68
2022-08-21T22:47:45.983Z,2.97
2022-08-21T22:50:26.063Z,4.20
2022-08-21T22:52:58.007Z,6.28
2022-08-21T22:55:53.362Z,6.90
2022-08-21T22:58:27.548Z,4.38
2022-08-21T23:01:20.516Z,4.57
2022-08-21T23:03:51.667Z,4.43
2022-08-21T23:06:23.066Z,5.15
2022-08-21T23:08:50.132Z,5.47
2022-08-21T23:11:20.989Z,4.88
2022-08-21T23:13:52.634Z,7.47
2022-08-21T23:16:47.117Z,6.38
2022-08-21T23:19:42.851Z,7.63
2022-08-21T23:22:19.441Z,8.15
2022-08-21T23:25:04.975Z,10.15
2022-08-21T23:27:39.061Z,11.43
2022-08-21T23:30:12.299Z,9.55
2022-08-21T23:36:21.121Z,6.90
2022-08-21T23:39:05.216Z,7.30
2022-08-21T23:41:55.848Z,5.35
2022-08-21T23:44:41.996Z,4.47
2022-08-21T23:47:32.225Z,4.68
2022-08-21T23:53:09.443Z,5.68
2022-08-21T23:56:14.836Z,5.28
2022-08-21T23:59:20.169Z,3.80
